Time;durP1;ratioP1;P1;durP2;ratioP2;P2;SDS_P1;SDS_P2;PMS_P1;PMS_P2;Temp;Humidity;BMP_temperature;BMP_pressure;BME280_temperature;BME280_humidity;BME280_pressure;Samples;Min_cycle;Max_cycle;Signal;HPM_P1;HPM_P2
2021/04/10 00:02:24;;;;;;;2.90;2.55;;;22.30;62.60;;;;;;5146204;27;20027;-34
2021/04/10 00:04:51;;;;;;;2.85;2.35;;;22.30;62.50;;;;;;5146092;27;20082;-35
2021/04/10 00:07:17;;;;;;;2.53;2.33;;;22.30;62.50;;;;;;5145838;27;20031;-34
2021/04/10 00:09:44;;;;;;;2.75;2.55;;;22.30;62.40;;;;;;5140922;27;20031;-36
2021/04/10 00:12:10;;;;;;;2.50;2.30;;;22.30;62.40;;;;;;5125256;28;20028;-35
2021/04/10 00:14:36;;;;;;;2.33;2.13;;;22.20;62.30;;;;;;5124952;27;20058;-34
2021/04/10 00:17:02;;;;;;;2.35;2.15;;;22.20;62.30;;;;;;5124879;28;20051;-34
2021/04/10 00:19:28;;;;;;;2.65;2.33;;;22.20;62.40;;;;;;5125060;28;20038;-34
2021/04/10 00:21:55;;;;;;;3.00;2.47;;;22.20;62.40;;;;;;5124248;28;20548;-35
2021/04/10 00:24:21;;;;;;;2.75;2.55;;;22.20;62.30;;;;;;5124864;28;20032;-35
2021/04/10 00:26:47;;;;;;;2.70;2.50;;;22.20;62.30;;;;;;5125060;28;20058;-35
2021/04/10 00:29:13;;;;;;;2.88;2.55;;;22.20;62.30;;;;;;5114848;27;20019;-34
2021/04/10 00:31:39;;;;;;;2.75;2.15;;;22.20;62.40;;;;;;5145249;27;20091;-34
2021/04/10 00:34:05;;;;;;;2.60;2.28;;;22.20;62.30;;;;;;5145536;27;20024;-34
2021/04/10 00:36:32;;;;;;;2.38;2.17;;;22.20;62.20;;;;;;5145224;27;20031;-35
2021/04/10 00:38:58;;;;;;;2.55;2.35;;;22.20;62.20;;;;;;5145081;27;20027;-35
2021/04/10 00:41:24;;;;;;;2.40;2.20;;;22.10;62.20;;;;;;5126017;27;20437;-34
2021/04/10 00:43:50;;;;;;;2.90;2.17;;;22.10;62.00;;;;;;5124473;28;20023;-35
2021/04/10 00:46:16;;;;;;;2.45;2.25;;;22.10;62.10;;;;;;5124450;28;20038;-34
2021/04/10 00:48:42;;;;;;;2.45;2.25;;;22.10;61.90;;;;;;5124497;28;20023;-35
2021/04/10 00:51:08;;;;;;;2.47;2.28;;;22.10;62.00;;;;;;5124664;28;20016;-35
2021/04/10 00:53:35;;;;;;;2.60;2.40;;;22.10;62.30;;;;;;5124338;28;20047;-35
2021/04/10 00:56:05;;;;;;;2.53;2.27;;;22.10;62.40;;;;;;5106041;28;20035;-35
2021/04/10 00:58:35;;;;;;;2.55;2.35;;;22.10;62.30;;;;;;5128819;27;20322;-34
2021/04/10 01:01:01;;;;;;;2.60;2.40;;;22.10;62.50;;;;;;5143555;27;20031;-35
2021/04/10 01:03:27;;;;;;;2.58;2.38;;;22.10;62.50;;;;;;5112839;27;20047;-35
2021/04/10 01:05:54;;;;;;;2.40;2.20;;;22.10;62.50;;;;;;5103980;28;20026;-35
2021/04/10 01:08:20;;;;;;;2.47;2.28;;;22.00;62.50;;;;;;5103375;28;20083;-35
2021/04/10 01:10:46;;;;;;;2.95;2.42;;;22.00;62.50;;;;;;5130784;27;20050;-34
2021/04/10 01:13:23;;;;;;;2.55;2.20;;;22.00;62.40;;;;;;5110432;28;20046;-35
2021/04/10 01:16:16;;;;;;;2.60;2.35;;;22.00;62.40;;;;;;5105968;28;20031;-35
2021/04/10 01:18:55;;;;;;;2.67;2.22;;;22.00;62.30;;;;;;5123732;28;20543;-35
2021/04/10 01:21:45;;;;;;;2.78;2.20;;;22.00;62.30;;;;;;5089329;28;20051;-34
2021/04/10 01:24:30;;;;;;;2.45;2.25;;;22.00;62.30;;;;;;5126390;27;20115;-35
2021/04/10 01:27:08;;;;;;;2.03;1.85;;;21.90;62.10;;;;;;5142751;27;20019;-35
2021/04/10 01:29:47;;;;;;;2.58;2.17;;;22.00;62.10;;;;;;5144026;27;20038;-35
2021/04/10 01:32:14;;;;;;;2.40;2.20;;;21.90;62.20;;;;;;5122601;28;20040;-34
2021/04/10 01:35:01;;;;;;;2.35;2.15;;;21.90;62.30;;;;;;5105294;28;20031;-34
2021/04/10 01:37:29;;;;;;;2.42;2.22;;;21.90;62.20;;;;;;5090724;28;20805;-34
2021/04/10 01:39:56;;;;;;;2.30;2.10;;;21.90;62.30;;;;;;5129976;27;20027;-34
2021/04/10 01:42:22;;;;;;;;;;;21.90;62.30;;;;;;5126172;27;20046;-35
2021/04/10 01:44:49;;;;;;;3.25;2.80;;;21.90;62.30;;;;;;5125740;27;19904;-35
2021/04/10 01:47:16;;;;;;;2.20;2.00;;;21.80;62.30;;;;;;5125734;27;20027;-34
2021/04/10 01:49:42;;;;;;;2.35;2.15;;;21.80;62.30;;;;;;5108409;27;20552;-34
2021/04/10 01:52:09;;;;;;;2.30;2.10;;;21.80;62.30;;;;;;5122626;27;20034;-35
2021/04/10 01:54:35;;;;;;;3.55;2.63;;;21.80;62.10;;;;;;5105379;28;20072;-34
2021/04/10 01:57:01;;;;;;;2.53;2.33;;;21.80;62.10;;;;;;5123257;28;20058;-34
2021/04/10 01:59:27;;;;;;;2.42;2.22;;;21.80;62.10;;;;;;5123306;28;20023;-34
2021/04/10 02:01:54;;;;;;;3.03;2.22;;;21.80;61.90;;;;;;5107153;27;20089;-35
2021/04/10 02:04:20;;;;;;;2.40;2.15;;;21.80;61.90;;;;;;5125278;27;20055;-35
2021/04/10 02:06:46;;;;;;;2.60;2.40;;;21.70;61.80;;;;;;5144125;27;20035;-34
2021/04/10 02:09:13;;;;;;;2.63;2.42;;;21.80;61.90;;;;;;5142853;27;20022;-34
2021/04/10 02:11:43;;;;;;;2.63;2.42;;;21.70;61.80;;;;;;5101107;28;20121;-35
2021/04/10 02:14:13;;;;;;;3.15;2.67;;;21.70;61.90;;;;;;5101158;28;20024;-35
2021/04/10 02:16:40;;;;;;;3.33;2.40;;;21.70;61.80;;;;;;5101481;28;20029;-34
2021/04/10 02:19:06;;;;;;;2.45;2.25;;;21.60;61.80;;;;;;5102487;28;20028;-34
2021/04/10 02:21:33;;;;;;;1.95;1.80;;;21.60;61.80;;;;;;5101365;28;20037;-34
2021/04/10 02:24:00;;;;;;;2.75;2.38;;;21.60;61.70;;;;;;5102526;28;20052;-35
2021/04/10 02:26:26;;;;;;;3.00;2.17;;;21.60;61.80;;;;;;5102675;28;20353;-35
2021/04/10 02:28:55;;;;;;;2.65;2.45;;;21.60;61.80;;;;;;5102496;28;20020;-35
2021/04/10 02:31:30;;;;;;;2.50;2.22;;;21.60;61.70;;;;;;5101281;28;20107;-34
2021/04/10 02:34:02;;;;;;;2.33;2.13;;;21.60;61.50;;;;;;5120441;28;20031;-34
2021/04/10 02:36:28;;;;;;;3.10;2.20;;;21.60;61.50;;;;;;5121843;28;20035;-35
2021/04/10 02:38:54;;;;;;;2.15;2.03;;;21.60;61.30;;;;;;5121254;28;20019;-34
2021/04/10 02:41:24;;;;;;;2.40;2.20;;;21.50;61.20;;;;;;5082809;28;20045;-35
2021/04/10 02:44:15;;;;;;;2.35;2.15;;;21.60;61.20;;;;;;5097772;28;20028;-35
2021/04/10 02:46:49;;;;;;;2.65;2.22;;;21.50;61.20;;;;;;5097756;28;20025;-35
2021/04/10 02:49:16;;;;;;;2.40;2.20;;;21.50;61.20;;;;;;5082022;28;20096;-34
2021/04/10 02:51:50;;;;;;;2.67;2.47;;;21.50;61.20;;;;;;5097761;28;20548;-34
2021/04/10 02:54:21;;;;;;;2.20;2.00;;;21.50;61.40;;;;;;5080758;28;20827;-34
2021/04/10 02:56:57;;;;;;;2.40;2.20;;;21.50;61.30;;;;;;5080967;28;20082;-34
2021/04/10 02:59:23;;;;;;;2.97;2.40;;;21.50;61.20;;;;;;5080598;28;20021;-34
2021/04/10 03:01:51;;;;;;;2.60;2.40;;;21.40;61.20;;;;;;5067099;28;20066;-35
2021/04/10 03:04:17;;;;;;;2.50;2.13;;;21.40;61.20;;;;;;5119492;28;20023;-34
2021/04/10 03:06:43;;;;;;;2.75;2.15;;;21.40;61.30;;;;;;5121142;28;20055;-34
2021/04/10 03:09:09;;;;;;;2.50;2.30;;;21.40;61.20;;;;;;5104070;28;20024;-35
2021/04/10 03:11:35;;;;;;;2.40;2.10;;;21.40;61.20;;;;;;5117879;28;20044;-35
2021/04/10 03:14:04;;;;;;;3.22;2.55;;;21.30;61.10;;;;;;5122577;28;20031;-35
2021/04/10 03:16:30;;;;;;;2.45;2.25;;;21.30;61.20;;;;;;5125803;28;20436;-34
2021/04/10 03:18:57;;;;;;;2.40;2.20;;;21.30;61.20;;;;;;5122464;28;20031;-34
2021/04/10 03:21:23;;;;;;;2.33;2.13;;;21.30;61.10;;;;;;5087219;28;20442;-34
2021/04/10 03:23:49;;;;;;;3.17;2.40;;;21.30;61.10;;;;;;5104122;28;20020;-35
2021/04/10 03:26:15;;;;;;;2.35;2.15;;;21.30;61.20;;;;;;5126073;28;20024;-35
2021/04/10 03:28:41;;;;;;;3.50;2.47;;;21.30;61.10;;;;;;5108047;28;20762;-34
2021/04/10 03:31:08;;;;;;;2.58;2.20;;;21.30;61.20;;;;;;5117699;27;20015;-34
2021/04/10 03:33:34;;;;;;;2.47;2.28;;;21.20;61.30;;;;;;5130174;27;20224;-34
2021/04/10 03:36:01;;;;;;;3.33;2.33;;;21.20;61.20;;;;;;5126020;28;20757;-35
2021/04/10 03:38:28;;;;;;;2.70;2.20;;;21.20;61.30;;;;;;5125871;28;20032;-34
2021/04/10 03:40:54;;;;;;;2.42;2.10;;;21.20;61.30;;;;;;5122167;27;20039;-34
2021/04/10 03:43:20;;;;;;;3.07;2.27;;;21.20;61.20;;;;;;5128099;27;20056;-34
2021/04/10 03:45:47;;;;;;;2.60;2.35;;;21.20;61.40;;;;;;5146240;27;20059;-34
2021/04/10 03:48:13;;;;;;;2.50;2.30;;;21.20;61.30;;;;;;5146326;27;20046;-34
2021/04/10 03:50:39;;;;;;;2.53;2.20;;;21.20;61.40;;;;;;5146126;27;20030;-35
2021/04/10 03:53:06;;;;;;;2.13;1.92;;;21.10;61.30;;;;;;5135588;27;20019;-34
2021/04/10 03:55:32;;;;;;;2.57;2.37;;;21.10;61.40;;;;;;5125656;28;20051;-34
2021/04/10 03:58:01;;;;;;;2.50;2.28;;;21.10;61.40;;;;;;5125562;28;20051;-34
2021/04/10 04:00:28;;;;;;;2.28;2.08;;;21.10;61.40;;;;;;5125338;28;20039;-34
2021/04/10 04:02:54;;;;;;;2.30;2.10;;;21.10;61.50;;;;;;5117836;27;20055;-34
2021/04/10 04:05:21;;;;;;;2.80;2.28;;;21.10;61.40;;;;;;5146124;27;20075;-34
2021/04/10 04:07:47;;;;;;;3.40;2.20;;;21.10;61.50;;;;;;5146248;27;20177;-35
2021/04/10 04:10:13;;;;;;;2.50;2.30;;;21.10;61.50;;;;;;5136567;27;20036;-34
2021/04/10 04:12:39;;;;;;;3.00;2.28;;;21.00;61.40;;;;;;5125370;28;20028;-34
2021/04/10 04:15:06;;;;;;;2.40;2.20;;;21.00;61.40;;;;;;5125126;28;20024;-35
2021/04/10 04:17:33;;;;;;;2.30;2.10;;;21.00;61.60;;;;;;5107210;28;20028;-34
2021/04/10 04:19:59;;;;;;;2.92;2.50;;;21.00;61.50;;;;;;5106942;28;20024;-34
2021/04/10 04:22:25;;;;;;;2.45;2.25;;;21.00;61.60;;;;;;5124734;28;20042;-34
2021/04/10 04:24:51;;;;;;;2.30;2.10;;;21.00;61.60;;;;;;5124749;28;20031;-34
2021/04/10 04:27:17;;;;;;;2.25;2.05;;;21.00;61.60;;;;;;5125207;28;20028;-34
2021/04/10 04:29:43;;;;;;;2.28;2.08;;;21.00;61.60;;;;;;5125127;28;20316;-34
2021/04/10 04:32:10;;;;;;;2.10;1.90;;;21.00;62.40;;;;;;5120403;28;20024;-34
2021/04/10 04:34:36;;;;;;;2.38;2.17;;;21.00;61.60;;;;;;5104415;28;20028;-34
2021/04/10 04:37:02;;;;;;;2.85;2.28;;;21.00;61.60;;;;;;5104125;28;20028;-34
2021/04/10 04:39:29;;;;;;;2.53;2.33;;;21.00;61.70;;;;;;5107071;28;20076;-34
2021/04/10 04:41:55;;;;;;;2.50;2.30;;;21.00;61.60;;;;;;5124452;28;20047;-34
2021/04/10 04:44:21;;;;;;;2.33;2.13;;;20.90;61.60;;;;;;5124809;28;20023;-34
2021/04/10 04:46:47;;;;;;;2.72;2.22;;;20.90;61.50;;;;;;5124678;28;20027;-34
2021/04/10 04:49:13;;;;;;;2.40;2.17;;;20.90;61.50;;;;;;5124450;28;20023;-34
2021/04/10 04:51:39;;;;;;;2.20;1.90;;;20.90;61.60;;;;;;5124503;28;20020;-34
2021/04/10 04:54:05;;;;;;;2.45;2.20;;;20.90;61.60;;;;;;5143713;27;20102;-34
2021/04/10 04:56:32;;;;;;;2.10;1.90;;;20.90;61.60;;;;;;5144943;27;20048;-34
2021/04/10 04:58:58;;;;;;;2.20;2.00;;;20.90;61.60;;;;;;5144946;27;20027;-34
2021/04/10 05:01:24;;;;;;;2.80;2.40;;;20.90;61.70;;;;;;5144849;27;20039;-34
2021/04/10 05:03:50;;;;;;;2.30;2.10;;;20.90;61.70;;;;;;5107762;28;20051;-34
2021/04/10 05:06:16;;;;;;;3.13;2.20;;;20.90;61.70;;;;;;5124420;28;20055;-34
2021/04/10 05:08:42;;;;;;;2.83;2.20;;;20.90;61.70;;;;;;5134307;27;20023;-34
2021/04/10 05:11:08;;;;;;;2.40;2.20;;;20.80;61.70;;;;;;5127380;27;20054;-34
2021/04/10 05:13:35;;;;;;;2.47;2.10;;;20.80;62.40;;;;;;5123812;28;20053;-34
2021/04/10 05:16:01;;;;;;;2.45;2.25;;;20.80;61.70;;;;;;5124219;28;20031;-34
2021/04/10 05:18:27;;;;;;;1.98;1.88;;;20.80;61.70;;;;;;5123967;28;20039;-35
2021/04/10 05:20:53;;;;;;;2.63;2.15;;;20.80;61.70;;;;;;5123932;28;20057;-34
2021/04/10 05:23:23;;;;;;;2.30;2.10;;;20.80;61.70;;;;;;5124290;27;20031;-34
2021/04/10 05:25:50;;;;;;;2.20;2.00;;;20.80;61.60;;;;;;5106157;28;20034;-34
2021/04/10 05:28:16;;;;;;;2.58;2.38;;;20.80;61.70;;;;;;5126864;27;20027;-34
2021/04/10 05:30:42;;;;;;;2.15;1.95;;;20.80;61.80;;;;;;5144500;27;20110;-35
2021/04/10 05:33:08;;;;;;;2.42;2.20;;;20.80;61.70;;;;;;5131271;27;20049;-39
2021/04/10 05:35:34;;;;;;;2.72;2.35;;;20.80;61.80;;;;;;5123862;28;20128;-35
2021/04/10 05:38:01;;;;;;;2.42;2.22;;;20.80;61.70;;;;;;5123772;28;20028;-34
2021/04/10 05:40:27;;;;;;;2.20;2.00;;;20.80;61.80;;;;;;5123320;28;20099;-34
2021/04/10 05:42:53;;;;;;;2.13;1.92;;;20.80;61.80;;;;;;5123379;28;20030;-35
2021/04/10 05:45:19;;;;;;;2.40;2.20;;;20.70;61.80;;;;;;5123850;28;20029;-34
2021/04/10 05:47:46;;;;;;;2.22;1.85;;;20.70;61.80;;;;;;5123019;28;20062;-34
2021/04/10 05:50:12;;;;;;;2.38;2.10;;;20.70;61.80;;;;;;5123566;28;20027;-34
2021/04/10 05:52:38;;;;;;;2.22;2.03;;;20.70;61.80;;;;;;5116321;28;20031;-34
2021/04/10 05:55:05;;;;;;;2.33;2.00;;;20.70;61.80;;;;;;5103124;28;20028;-35
2021/04/10 05:57:31;;;;;;;3.33;2.05;;;20.70;61.80;;;;;;5103157;28;20107;-34
2021/04/10 05:59:57;;;;;;;2.10;1.90;;;20.70;61.80;;;;;;5102989;28;20031;-34
2021/04/10 06:02:24;;;;;;;2.33;2.13;;;20.70;61.80;;;;;;5108794;28;20032;-34
2021/04/10 06:04:51;;;;;;;2.42;2.22;;;20.70;61.80;;;;;;5123120;28;20061;-34
2021/04/10 06:07:17;;;;;;;2.20;2.00;;;20.70;61.80;;;;;;5123183;28;20035;-35
2021/04/10 06:09:43;;;;;;;2.35;2.15;;;20.70;61.90;;;;;;5127883;27;20027;-37
2021/04/10 06:12:10;;;;;;;2.40;2.00;;;20.70;61.90;;;;;;5125162;27;20050;-34
2021/04/10 06:14:36;;;;;;;2.53;2.25;;;20.70;61.20;;;;;;5117437;28;20074;-34
2021/04/10 06:17:02;;;;;;;2.40;2.20;;;20.70;61.90;;;;;;5123182;28;20085;-34
2021/04/10 06:19:29;;;;;;;2.50;2.30;;;20.60;61.80;;;;;;5105055;28;20035;-34
2021/04/10 06:21:55;;;;;;;2.40;2.20;;;20.60;61.90;;;;;;5122806;28;20040;-34
2021/04/10 06:24:21;;;;;;;2.55;2.20;;;20.60;61.90;;;;;;5123041;28;20037;-34
2021/04/10 06:26:47;;;;;;;2.22;2.03;;;20.60;62.70;;;;;;5122990;28;20055;-34
2021/04/10 06:29:13;;;;;;;2.60;2.13;;;20.60;61.90;;;;;;5122983;28;20027;-34
2021/04/10 06:31:40;;;;;;;2.10;1.90;;;20.60;61.90;;;;;;5123018;28;20023;-34
2021/04/10 06:34:07;;;;;;;1.70;1.60;;;20.60;61.90;;;;;;5104725;28;20035;-34
2021/04/10 06:36:33;;;;;;;2.22;2.03;;;20.60;61.90;;;;;;5123006;28;20063;-34
2021/04/10 06:38:59;;;;;;;2.53;2.08;;;20.60;61.90;;;;;;5122825;28;20068;-36
2021/04/10 06:41:25;;;;;;;2.30;2.10;;;20.60;61.90;;;;;;5141999;28;20042;-34
2021/04/10 06:43:51;;;;;;;2.22;2.03;;;20.60;61.90;;;;;;5143093;28;20019;-34
2021/04/10 06:46:17;;;;;;;2.20;2.00;;;20.60;61.90;;;;;;5123897;28;20031;-34
2021/04/10 06:48:44;;;;;;;2.67;2.10;;;20.60;61.90;;;;;;5122933;28;20047;-34
2021/04/10 06:51:12;;;;;;;3.03;2.22;;;20.60;61.90;;;;;;5104580;28;20497;-34
2021/04/10 06:53:42;;;;;;;2.28;2.08;;;20.60;62.00;;;;;;5107047;28;20573;-34
2021/04/10 06:56:09;;;;;;;2.70;2.00;;;20.60;62.00;;;;;;5102550;28;20024;-35
2021/04/10 06:58:44;;;;;;;2.28;1.88;;;20.60;62.00;;;;;;5085130;28;20024;-43
2021/04/10 07:01:11;;;;;;;2.10;1.77;;;20.60;62.00;;;;;;5106371;28;20047;-35
2021/04/10 07:03:37;;;;;;;;;;;20.50;62.00;;;;;;5088163;28;20021;-34
2021/04/10 07:06:03;;;;;;;2.30;2.00;;;20.50;62.10;;;;;;5105758;27;19980;-34
2021/04/10 07:08:29;;;;;;;2.37;2.10;;;20.50;62.10;;;;;;5128884;27;20023;-34
2021/04/10 07:10:55;;;;;;;2.03;1.80;;;20.50;62.10;;;;;;5093024;28;20048;-35
2021/04/10 07:13:22;;;;;;;2.58;2.13;;;20.50;62.10;;;;;;5104718;28;20035;-34
2021/04/10 07:15:48;;;;;;;2.15;1.92;;;20.50;62.10;;;;;;5136475;27;20117;-34
2021/04/10 07:18:14;;;;;;;2.35;2.05;;;20.50;62.10;;;;;;5129059;27;20024;-35
2021/04/10 07:20:40;;;;;;;2.42;2.22;;;20.50;62.10;;;;;;5107981;28;20595;-34
2021/04/10 07:23:11;;;;;;;2.20;1.98;;;20.50;62.10;;;;;;5115220;28;20024;-35
2021/04/10 07:25:39;;;;;;;3.20;1.95;;;20.50;62.10;;;;;;5125754;27;20396;-34
2021/04/10 07:28:27;;;;;;;2.22;1.85;;;20.50;62.10;;;;;;5128279;27;20065;-34
2021/04/10 07:31:03;;;;;;;2.10;1.90;;;20.50;62.10;;;;;;5146570;27;20087;-34
2021/04/10 07:33:33;;;;;;;3.10;2.28;;;20.50;62.20;;;;;;5113452;28;20023;-34
2021/04/10 07:36:01;;;;;;;2.15;1.95;;;20.50;62.30;;;;;;5126070;28;20031;-34
2021/04/10 07:38:27;;;;;;;;;;;20.50;62.30;;;;;;5126293;28;20034;-34
2021/04/10 07:40:53;;;;;;;2.85;2.05;;;20.50;62.30;;;;;;5140427;27;19943;-34
2021/04/10 07:43:24;;;;;;;3.07;2.30;;;20.50;62.40;;;;;;5128157;27;20715;-35
2021/04/10 07:45:50;;;;;;;2.28;2.08;;;20.50;62.50;;;;;;5130641;27;20251;-34
2021/04/10 07:48:18;;;;;;;2.58;2.28;;;20.50;62.50;;;;;;5125807;28;20027;-34
2021/04/10 07:50:44;;;;;;;2.53;2.20;;;20.40;62.50;;;;;;5107815;28;20043;-34
2021/04/10 07:53:24;;;;;;;2.30;2.10;;;20.40;62.40;;;;;;5125388;28;20049;-34
2021/04/10 07:55:51;;;;;;;2.30;1.90;;;20.40;62.40;;;;;;5125730;28;20035;-34
2021/04/10 07:58:21;;;;;;;;;;;20.40;62.40;;;;;;5107708;28;20081;-34
2021/04/10 08:00:47;;;;;;;1.95;1.75;;;20.40;62.40;;;;;;5125427;28;20440;-34
2021/04/10 08:03:33;;;;;;;2.30;2.10;;;20.40;62.50;;;;;;5106909;28;20024;-34
2021/04/10 08:06:05;;;;;;;3.42;2.10;;;20.40;62.50;;;;;;5107185;28;20103;-35
2021/04/10 08:08:32;;;;;;;2.40;2.13;;;20.40;62.60;;;;;;5125064;28;20020;-34
2021/04/10 08:11:03;;;;;;;2.70;2.50;;;20.40;62.60;;;;;;5140059;27;20035;-35
2021/04/10 08:13:29;;;;;;;2.78;2.30;;;20.40;62.60;;;;;;5145739;27;20023;-34
2021/04/10 08:16:15;;;;;;;3.35;2.58;;;20.40;62.60;;;;;;5129227;27;20083;-34
2021/04/10 08:18:51;;;;;;;2.20;1.88;;;20.40;62.60;;;;;;5118644;28;20464;-34
2021/04/10 08:21:17;;;;;;;2.50;2.30;;;20.40;62.70;;;;;;5125201;28;20044;-34
2021/04/10 08:23:43;;;;;;;2.55;2.33;;;20.40;62.70;;;;;;5124838;28;20111;-35
2021/04/10 08:26:10;;;;;;;2.85;2.15;;;20.40;62.80;;;;;;5125387;28;20039;-34
2021/04/10 08:28:39;;;;;;;2.50;2.30;;;20.40;62.80;;;;;;5125274;28;20057;-34
2021/04/10 08:31:05;;;;;;;2.83;2.20;;;20.40;62.80;;;;;;5106626;28;20028;-34
2021/04/10 08:33:31;;;;;;;2.58;2.33;;;20.40;62.90;;;;;;5125022;28;20053;-34
2021/04/10 08:35:58;;;;;;;2.67;2.17;;;20.40;62.80;;;;;;5124750;28;20047;-35
2021/04/10 08:38:28;;;;;;;2.33;2.13;;;20.40;62.90;;;;;;5124828;28;20105;-34
2021/04/10 08:40:55;;;;;;;2.58;2.25;;;20.40;62.90;;;;;;5139467;27;20039;-34
2021/04/10 08:43:22;;;;;;;3.08;2.33;;;20.40;62.90;;;;;;5127069;27;20027;-34
2021/04/10 08:45:51;;;;;;;2.47;2.25;;;20.40;62.90;;;;;;5094519;28;20024;-34
2021/04/10 08:48:18;;;;;;;2.80;2.60;;;20.40;62.90;;;;;;5124920;28;20023;-34
2021/04/10 08:50:45;;;;;;;2.65;2.45;;;20.40;62.90;;;;;;5106754;28;20034;-34
2021/04/10 08:53:14;;;;;;;2.80;2.42;;;20.40;62.90;;;;;;5113063;28;20040;-34
2021/04/10 08:55:40;;;;;;;2.50;2.17;;;20.40;62.90;;;;;;5068920;28;20044;-34
2021/04/10 08:58:19;;;;;;;2.88;2.35;;;20.30;62.90;;;;;;5085965;28;20059;-34
2021/04/10 09:00:45;;;;;;;2.40;2.20;;;20.30;63.00;;;;;;5103902;28;20099;-34
2021/04/10 09:03:11;;;;;;;2.45;2.25;;;20.30;63.00;;;;;;5103922;28;20052;-35
2021/04/10 09:05:51;;;;;;;3.50;2.60;;;20.30;63.00;;;;;;5103923;28;20102;-34
2021/04/10 09:08:24;;;;;;;3.67;2.28;;;20.30;63.10;;;;;;5133650;27;20026;-34
2021/04/10 09:10:51;;;;;;;2.78;2.58;;;20.30;63.20;;;;;;5130176;27;20385;-35
2021/04/10 09:13:17;;;;;;;2.95;2.60;;;20.30;63.20;;;;;;5124320;28;20476;-34
2021/04/10 09:15:43;;;;;;;2.58;2.38;;;20.30;63.20;;;;;;5138460;27;20031;-34
2021/04/10 09:18:10;;;;;;;2.67;2.45;;;20.30;63.20;;;;;;5144899;27;20383;-34
2021/04/10 09:20:46;;;;;;;3.67;2.80;;;20.30;63.20;;;;;;5144574;27;20035;-34
2021/04/10 09:23:24;;;;;;;2.53;2.30;;;20.30;63.20;;;;;;5131882;27;20110;-34
2021/04/10 09:26:08;;;;;;;2.85;2.42;;;20.30;63.20;;;;;;5123464;28;20027;-34
2021/04/10 09:28:35;;;;;;;2.30;2.10;;;20.30;63.20;;;;;;5127138;27;20024;-34
2021/04/10 09:31:02;;;;;;;2.47;2.28;;;20.30;63.20;;;;;;5144416;27;20023;-34
2021/04/10 09:33:31;;;;;;;2.73;2.27;;;20.30;63.30;;;;;;5144504;27;20096;-35
2021/04/10 09:35:57;;;;;;;2.85;2.40;;;20.30;63.30;;;;;;5144147;27;20260;-34
2021/04/10 09:38:39;;;;;;;2.83;2.35;;;20.30;63.30;;;;;;5144372;27;20027;-34
2021/04/10 09:41:05;;;;;;;2.58;2.38;;;20.30;63.30;;;;;;5130723;27;20061;-34
2021/04/10 09:43:31;;;;;;;3.38;2.78;;;20.30;63.50;;;;;;5123866;28;20049;-34
2021/04/10 09:45:58;;;;;;;3.25;2.70;;;20.30;64.20;;;;;;5123406;28;20027;-34
2021/04/10 09:48:25;;;;;;;3.13;2.45;;;20.30;63.60;;;;;;5123599;28;20031;-34
2021/04/10 09:50:52;;;;;;;;;;;20.30;63.60;;;;;;5105752;28;20038;-34
2021/04/10 09:53:19;;;;;;;2.75;2.40;;;20.30;63.50;;;;;;5110822;28;19911;-34
2021/04/10 09:55:47;;;;;;;4.18;2.90;;;20.30;63.60;;;;;;5084645;28;20061;-34
2021/04/10 09:58:13;;;;;;;2.95;2.65;;;20.30;63.60;;;;;;5103180;28;20507;-34
2021/04/10 10:00:44;;;;;;;2.67;2.47;;;20.30;63.60;;;;;;5102996;28;20495;-34
2021/04/10 10:03:12;;;;;;;2.83;2.63;;;20.30;63.60;;;;;;5103127;28;20061;-34
2021/04/10 10:05:42;;;;;;;2.67;2.47;;;20.30;63.60;;;;;;5102753;28;20020;-34
2021/04/10 10:08:10;;;;;;;2.58;2.38;;;20.30;63.60;;;;;;5102895;28;20022;-34
2021/04/10 10:10:44;;;;;;;3.25;2.70;;;20.30;63.60;;;;;;5127109;27;20050;-34
2021/04/10 10:13:15;;;;;;;3.72;2.58;;;20.20;63.50;;;;;;5143904;27;20023;-34
2021/04/10 10:15:42;;;;;;;3.05;2.67;;;20.30;63.70;;;;;;5128934;28;20082;-34
2021/04/10 10:18:15;;;;;;;2.88;2.53;;;20.30;63.70;;;;;;5123056;28;20019;-34
2021/04/10 10:20:57;;;;;;;3.40;3.05;;;20.20;63.70;;;;;;5104829;28;20035;-34
2021/04/10 10:23:34;;;;;;;3.40;2.80;;;20.20;63.80;;;;;;5109829;28;20035;-34
2021/04/10 10:26:14;;;;;;;3.35;2.83;;;20.20;63.80;;;;;;5102436;28;20078;-34
2021/04/10 10:28:44;;;;;;;3.03;2.72;;;20.20;64.00;;;;;;5102761;28;20061;-34
2021/04/10 10:31:15;;;;;;;3.08;2.78;;;20.20;64.10;;;;;;5102550;28;20107;-35
2021/04/10 10:33:41;;;;;;;2.97;2.67;;;20.20;64.10;;;;;;5103885;28;20515;-34
2021/04/10 10:36:08;;;;;;;3.10;2.80;;;20.20;64.20;;;;;;5106662;28;20055;-34
2021/04/10 10:38:39;;;;;;;2.95;2.55;;;20.20;64.00;;;;;;5088606;28;20048;-34
2021/04/10 10:41:06;;;;;;;3.28;2.97;;;20.20;64.00;;;;;;5139272;27;20054;-34
2021/04/10 10:43:32;;;;;;;3.33;3.03;;;20.20;64.00;;;;;;5147742;27;20049;-34
2021/04/10 10:46:00;;;;;;;2.92;2.63;;;20.20;64.00;;;;;;5112146;28;20046;-34
2021/04/10 10:48:28;;;;;;;3.55;2.63;;;20.20;64.00;;;;;;5126979;28;20119;-34
2021/04/10 10:51:00;;;;;;;3.20;2.90;;;20.20;64.00;;;;;;5126957;28;20815;-34
2021/04/10 10:53:40;;;;;;;3.92;2.60;;;20.20;64.00;;;;;;5095375;28;20107;-34
2021/04/10 10:56:11;;;;;;;3.40;3.10;;;20.20;64.10;;;;;;5106148;28;20489;-34
2021/04/10 10:59:03;;;;;;;3.08;2.78;;;20.20;64.10;;;;;;5106458;28;20043;-34
2021/04/10 11:01:32;;;;;;;2.97;2.70;;;20.20;64.20;;;;;;5105988;28;20065;-34
2021/04/10 11:04:06;;;;;;;3.53;3.22;;;20.20;64.20;;;;;;5106436;28;20020;-34
2021/04/10 11:06:42;;;;;;;3.35;2.60;;;20.20;64.20;;;;;;5107051;28;20020;-34
2021/04/10 11:09:21;;;;;;;3.35;2.78;;;20.20;64.20;;;;;;5105964;28;20020;-34
2021/04/10 11:11:48;;;;;;;3.00;2.75;;;20.20;64.30;;;;;;5105929;28;20205;-34
2021/04/10 11:14:20;;;;;;;;;;;20.20;64.30;;;;;;5090241;28;20024;-35
2021/04/10 11:16:48;;;;;;;3.25;2.65;;;20.10;64.40;;;;;;5126165;28;19907;-35
2021/04/10 11:19:26;;;;;;;;;;;20.10;64.40;;;;;;5126982;28;20019;-34
2021/04/10 11:21:53;;;;;;;2.92;2.60;;;20.10;64.50;;;;;;5133004;27;19961;-34
2021/04/10 11:24:19;;;;;;;4.07;2.90;;;20.10;64.50;;;;;;5087534;28;20144;-34
2021/04/10 11:26:47;;;;;;;3.00;2.70;;;20.10;64.50;;;;;;5105595;28;20032;-34
2021/04/10 11:29:20;;;;;;;3.25;2.78;;;20.10;64.50;;;;;;5105880;28;20044;-35
2021/04/10 11:32:05;;;;;;;2.83;2.63;;;20.10;65.20;;;;;;5116421;27;20031;-34
2021/04/10 11:34:32;;;;;;;3.03;2.70;;;20.10;64.40;;;;;;5126047;28;20028;-34
2021/04/10 11:36:58;;;;;;;3.53;3.10;;;20.10;64.40;;;;;;5125735;28;20028;-34
2021/04/10 11:39:27;;;;;;;3.07;2.77;;;20.10;64.50;;;;;;5128124;27;20061;-35
2021/04/10 11:41:54;;;;;;;3.42;3.13;;;20.10;64.50;;;;;;5146557;27;20053;-34
2021/04/10 11:44:21;;;;;;;3.10;2.80;;;20.00;64.40;;;;;;5143209;27;20023;-34
2021/04/10 11:46:47;;;;;;;3.33;2.63;;;20.10;64.60;;;;;;5129168;27;20031;-34
2021/04/10 11:49:26;;;;;;;3.08;2.83;;;20.10;64.60;;;;;;5127960;27;20031;-34
2021/04/10 11:51:52;;;;;;;3.45;3.15;;;20.10;64.60;;;;;;5145993;27;20042;-35
2021/04/10 11:54:36;;;;;;;4.00;3.03;;;20.10;64.70;;;;;;5124883;28;20102;-34
2021/04/10 11:57:03;;;;;;;4.03;3.10;;;20.10;64.60;;;;;;5125347;28;20028;-34
2021/04/10 11:59:36;;;;;;;3.28;2.97;;;20.10;64.70;;;;;;5107083;28;20034;-34
2021/04/10 12:02:03;;;;;;;3.08;2.88;;;20.10;64.70;;;;;;5125475;28;20053;-34
2021/04/10 12:04:31;;;;;;;2.90;2.67;;;20.00;64.60;;;;;;5107359;28;20027;-34
2021/04/10 12:07:07;;;;;;;3.10;2.70;;;20.00;64.60;;;;;;5125269;28;20035;-34
2021/04/10 12:09:40;;;;;;;3.47;2.72;;;20.00;64.60;;;;;;5125307;28;20030;-34
2021/04/10 12:12:08;;;;;;;3.67;3.38;;;20.00;64.60;;;;;;5125227;28;20063;-34
2021/04/10 12:14:36;;;;;;;3.60;3.30;;;20.00;64.60;;;;;;5120393;28;20059;-34
2021/04/10 12:17:02;;;;;;;;;;;20.00;64.60;;;;;;5105272;28;20086;-34
2021/04/10 12:19:28;;;;;;;3.15;2.80;;;20.00;64.70;;;;;;5119568;27;19908;-34
2021/04/10 12:21:54;;;;;;;3.45;3.15;;;20.00;64.80;;;;;;5125792;27;20396;-34
2021/04/10 12:24:20;;;;;;;3.78;3.25;;;20.00;64.90;;;;;;5145513;27;20023;-34
2021/04/10 12:26:47;;;;;;;3.30;3.00;;;20.00;64.80;;;;;;5145727;27;20121;-34
2021/04/10 12:29:13;;;;;;;2.80;2.47;;;20.00;64.90;;;;;;5145509;27;20027;-34
2021/04/10 12:31:39;;;;;;;4.10;3.15;;;19.90;64.90;;;;;;5145586;27;20019;-34
2021/04/10 12:34:06;;;;;;;4.28;3.30;;;20.00;65.00;;;;;;5127105;27;20031;-34
2021/04/10 12:36:32;;;;;;;3.25;2.95;;;20.00;65.00;;;;;;5126895;27;20044;-34
2021/04/10 12:38:59;;;;;;;3.57;3.13;;;20.00;65.00;;;;;;5145223;27;20062;-34
2021/04/10 12:41:25;;;;;;;3.58;3.28;;;20.00;64.90;;;;;;5107843;28;20294;-35
2021/04/10 12:43:52;;;;;;;3.30;3.00;;;20.00;65.00;;;;;;5124696;28;20035;-34
2021/04/10 12:46:19;;;;;;;3.80;2.92;;;20.00;65.00;;;;;;5125806;27;20484;-35
2021/04/10 12:48:46;;;;;;;3.30;3.00;;;20.00;65.00;;;;;;5127069;27;20031;-34
2021/04/10 12:51:12;;;;;;;4.25;3.10;;;20.00;64.90;;;;;;5143489;27;20024;-34
2021/04/10 12:53:39;;;;;;;4.05;3.08;;;20.00;64.90;;;;;;5129906;27;20027;-34
2021/04/10 12:56:05;;;;;;;3.60;3.30;;;20.00;65.00;;;;;;5124277;28;20031;-34